OPA Logo
 
ASOS:
At:2022.10.05 0915 UTC
Wind:220° @ 5KT
Viz: 10 mile(s)
Sky: clear
Temp: 51 F (11 C)
DewP: 37 F (3 C)
RH: 57%
Baro: 30.18 in.
ob: KBDN 050915Z AUTO 22005KT 10SM CLR 11/03 A3018 RMK AO2

ASOS: KRDM
At:2022.10.05 0856 UTC
Wind:150° @ 4KT
Viz: 10 mile(s)
Sky: clear
Temp: 51.1 F (10.6 C)
DewP: 37.0 F (2.8 C)
RH: 58%
Baro: 30.14 in.
ob: KRDM 050856Z AUTO 15004KT 10SM CLR 11/03 A3014 RMK AO2 SLP185 T01060028 52008
Apache-SSL Logo

Valid HTML 4.01!

Central Oregon OPA Chapter

Upcoming Fly Outs


2004

June

12 Bend, OR - Flying Festival - Bend Airport

Other Fly-Out pages

Oregon Pilots Association Events Calendar

Washington Pilots Association Events

Past Fly Outs


Caldwell, ID and the Kitfox factory February 2002

XMAS Party 2001

Pasco, WA November 2001

Bend Airport Open House 2001

Flyout May 2001 to Flying M Ranch

Flyout April 2001 to Tillamook Air Museum


Web page by: gem@rellim.com